Waterville, Vermont
Current Conditions -  °F | °C
As of 4:54 AM on Monday 26 Jan 2015 (Local Time) from KMVL Reporting Station
Clear Clear  
Wind Chill: -25°   Ceiling: Unl
Heat Index: -25°   Visibility: 10mi
Dew Point: -28°   Wind: 0mph
Humidity: 75%   Direction: NA
Pressure: 30.12"   Gusts: NA
Location:  44.69°N, 72.77°W
Report Text: KMVL 260954Z AUTO 00000KT 10SM CLR M25/M28 A3012 RMK AO2 SLP224 T12501283 TSNO
Loading
Personal Weather Stations






























Interactive Weather Map New forecast layout! Learn more

10-Day Weather Forecast

Advertisements
Track Severe Weather on mobile